sensor_id;sensor_type;location;lat;lon;timestamp;pressure;altitude;pressure_sealevel;temperature;humidity
22662;BME280;11497;52.222;21.246;2024-03-22T00:02:17;100471.00;;;7.14;83.24
22662;BME280;11497;52.222;21.246;2024-03-22T00:04:44;100461.63;;;7.14;83.20
22662;BME280;11497;52.222;21.246;2024-03-22T00:07:11;100464.19;;;7.14;83.70
22662;BME280;11497;52.222;21.246;2024-03-22T00:09:38;100462.50;;;7.17;83.49
22662;BME280;11497;52.222;21.246;2024-03-22T00:12:05;100449.66;;;7.15;83.85
22662;BME280;11497;52.222;21.246;2024-03-22T00:14:32;100462.50;;;7.17;84.10
22662;BME280;11497;52.222;21.246;2024-03-22T00:16:59;100454.84;;;7.18;84.35
22662;BME280;11497;52.222;21.246;2024-03-22T00:19:26;100454.06;;;7.21;84.04
22662;BME280;11497;52.222;21.246;2024-03-22T00:21:53;100453.22;;;7.22;84.49
22662;BME280;11497;52.222;21.246;2024-03-22T00:24:20;100451.50;;;7.21;84.46
22662;BME280;11497;52.222;21.246;2024-03-22T00:26:47;100451.44;;;7.18;84.95
22662;BME280;11497;52.222;21.246;2024-03-22T00:29:15;100448.06;;;7.20;84.52
22662;BME280;11497;52.222;21.246;2024-03-22T00:31:42;100449.72;;;7.18;84.96
22662;BME280;11497;52.222;21.246;2024-03-22T00:34:09;100446.34;;;7.19;85.13
22662;BME280;11497;52.222;21.246;2024-03-22T00:36:36;100443.78;;;7.19;85.48
22662;BME280;11497;52.222;21.246;2024-03-22T00:39:03;100444.66;;;7.20;85.75
22662;BME280;11497;52.222;21.246;2024-03-22T00:41:30;100442.94;;;7.19;85.82
22662;BME280;11497;52.222;21.246;2024-03-22T00:43:58;100441.22;;;7.19;85.94
22662;BME280;11497;52.222;21.246;2024-03-22T00:46:24;100436.97;;;7.20;86.34
22662;BME280;11497;52.222;21.246;2024-03-22T00:48:52;100436.13;;;7.21;86.33
22662;BME280;11497;52.222;21.246;2024-03-22T00:51:18;100426.72;;;7.20;86.46
22662;BME280;11497;52.222;21.246;2024-03-22T00:53:45;100432.69;;;7.20;86.75
22662;BME280;11497;52.222;21.246;2024-03-22T00:56:12;100431.81;;;7.18;87.12
22662;BME280;11497;52.222;21.246;2024-03-22T00:58:39;100432.69;;;7.20;86.91
22662;BME280;11497;52.222;21.246;2024-03-22T01:01:06;100431.78;;;7.17;87.04
22662;BME280;11497;52.222;21.246;2024-03-22T01:03:33;100441.16;;;7.16;87.44
22662;BME280;11497;52.222;21.246;2024-03-22T01:06:00;100440.34;;;7.17;87.43
22662;BME280;11497;52.222;21.246;2024-03-22T01:08:27;100442.94;;;7.19;87.89
22662;BME280;11497;52.222;21.246;2024-03-22T01:10:54;100437.78;;;7.17;87.79
22662;BME280;11497;52.222;21.246;2024-03-22T01:13:21;100442.06;;;7.18;88.22
22662;BME280;11497;52.222;21.246;2024-03-22T01:15:48;100439.50;;;7.18;88.08
22662;BME280;11497;52.222;21.246;2024-03-22T01:18:15;100426.75;;;7.21;88.21
22662;BME280;11497;52.222;21.246;2024-03-22T01:20:42;100430.16;;;7.22;88.18
22662;BME280;11497;52.222;21.246;2024-03-22T01:23:10;100420.75;;;7.19;88.26
22662;BME280;11497;52.222;21.246;2024-03-22T01:25:36;100425.88;;;7.19;88.25
22662;BME280;11497;52.222;21.246;2024-03-22T01:28:04;100419.03;;;7.20;88.41
22662;BME280;11497;52.222;21.246;2024-03-22T01:30:31;100422.44;;;7.20;88.37
22662;BME280;11497;52.222;21.246;2024-03-22T01:33:00;100417.34;;;7.20;88.93
22662;BME280;11497;52.222;21.246;2024-03-22T01:35:27;100419.06;;;7.21;88.84
22662;BME280;11497;52.222;21.246;2024-03-22T01:37:54;100419.09;;;7.23;88.91
22662;BME280;11497;52.222;21.246;2024-03-22T01:40:20;100412.28;;;7.23;89.19
22662;BME280;11497;52.222;21.246;2024-03-22T01:42:48;100415.72;;;7.24;88.88
22662;BME280;11497;52.222;21.246;2024-03-22T01:45:15;100416.59;;;7.26;89.30
22662;BME280;11497;52.222;21.246;2024-03-22T01:47:42;100412.38;;;7.28;88.90
22662;BME280;11497;52.222;21.246;2024-03-22T01:50:10;100420.94;;;7.30;89.34
22662;BME280;11497;52.222;21.246;2024-03-22T01:52:39;100419.25;;;7.32;89.44
22662;BME280;11497;52.222;21.246;2024-03-22T01:55:07;100414.16;;;7.33;89.27
22662;BME280;11497;52.222;21.246;2024-03-22T01:57:35;100412.47;;;7.34;89.06
22662;BME280;11497;52.222;21.246;2024-03-22T02:00:02;100421.94;;;7.38;89.31
22662;BME280;11497;52.222;21.246;2024-03-22T02:02:40;100421.09;;;7.39;89.32
22662;BME280;11497;52.222;21.246;2024-03-22T02:05:17;100404.91;;;7.42;89.23
22662;BME280;11497;52.222;21.246;2024-03-22T02:07:48;100413.53;;;7.47;89.21
22662;BME280;11497;52.222;21.246;2024-03-22T02:10:15;100406.69;;;7.47;89.20
22662;BME280;11497;52.222;21.246;2024-03-22T02:12:43;100406.69;;;7.47;89.30
22662;BME280;11497;52.222;21.246;2024-03-22T02:15:10;100413.63;;;7.51;89.18
22662;BME280;11497;52.222;21.246;2024-03-22T02:17:37;100407.59;;;7.49;88.98
22662;BME280;11497;52.222;21.246;2024-03-22T02:20:04;100415.31;;;7.53;89.00
22662;BME280;11497;52.222;21.246;2024-03-22T02:22:32;100405.09;;;7.54;89.14
22662;BME280;11497;52.222;21.246;2024-03-22T02:24:59;100407.63;;;7.53;89.12
22662;BME280;11497;52.222;21.246;2024-03-22T02:27:26;100401.66;;;7.52;89.41
22662;BME280;11497;52.222;21.246;2024-03-22T02:29:53;100409.41;;;7.55;89.19
22662;BME280;11497;52.222;21.246;2024-03-22T02:32:20;100409.41;;;7.55;89.40
22662;BME280;11497;52.222;21.246;2024-03-22T02:34:47;100409.44;;;7.57;89.37
22662;BME280;11497;52.222;21.246;2024-03-22T02:37:14;100410.28;;;7.57;89.50
22662;BME280;11497;52.222;21.246;2024-03-22T02:39:41;100405.97;;;7.56;89.61
22662;BME280;11497;52.222;21.246;2024-03-22T02:42:08;100402.59;;;7.57;89.53
22662;BME280;11497;52.222;21.246;2024-03-22T02:44:35;100400.09;;;7.60;89.37
22662;BME280;11497;52.222;21.246;2024-03-22T02:47:05;100402.66;;;7.60;89.45
22662;BME280;11497;52.222;21.246;2024-03-22T02:49:32;100406.06;;;7.61;89.87
22662;BME280;11497;52.222;21.246;2024-03-22T02:51:59;100402.72;;;7.63;89.95
22662;BME280;11497;52.222;21.246;2024-03-22T02:54:26;100405.25;;;7.65;89.65
22662;BME280;11497;52.222;21.246;2024-03-22T02:56:53;100401.06;;;7.67;89.37
22662;BME280;11497;52.222;21.246;2024-03-22T02:59:20;100396.81;;;7.69;89.57
22662;BME280;11497;52.222;21.246;2024-03-22T03:01:47;100394.28;;;7.72;89.62
22662;BME280;11497;52.222;21.246;2024-03-22T03:04:14;100394.31;;;7.74;89.87
22662;BME280;11497;52.222;21.246;2024-03-22T03:06:41;100404.50;;;7.70;89.98
22662;BME280;11497;52.222;21.246;2024-03-22T03:09:08;100402.88;;;7.76;90.25
22662;BME280;11497;52.222;21.246;2024-03-22T03:11:39;100405.41;;;7.73;89.97
22662;BME280;11497;52.222;21.246;2024-03-22T03:14:06;100399.38;;;7.69;90.09
22662;BME280;11497;52.222;21.246;2024-03-22T03:16:33;100402.72;;;7.66;90.43
22662;BME280;11497;52.222;21.246;2024-03-22T03:19:00;100396.75;;;7.66;90.76
22662;BME280;11497;52.222;21.246;2024-03-22T03:21:27;100403.63;;;7.68;90.83
22662;BME280;11497;52.222;21.246;2024-03-22T03:23:54;100402.78;;;7.69;90.60
22662;BME280;11497;52.222;21.246;2024-03-22T03:26:21;100404.66;;;7.80;90.34
22662;BME280;11497;52.222;21.246;2024-03-22T03:28:48;100402.00;;;7.75;90.01
22662;BME280;11497;52.222;21.246;2024-03-22T03:31:15;100404.50;;;7.70;89.71
22662;BME280;11497;52.222;21.246;2024-03-22T03:33:42;100396.75;;;7.66;89.85
22662;BME280;11497;52.222;21.246;2024-03-22T03:36:09;100392.22;;;7.48;90.40
22662;BME280;11497;52.222;21.246;2024-03-22T03:38:36;100405.75;;;7.39;90.47
22662;BME280;11497;52.222;21.246;2024-03-22T03:41:04;100398.06;;;7.39;91.14
22662;BME280;11497;52.222;21.246;2024-03-22T03:43:31;100398.06;;;7.41;90.84
22662;BME280;11497;52.222;21.246;2024-03-22T03:45:58;100403.09;;;7.35;90.43
22662;BME280;11497;52.222;21.246;2024-03-22T03:48:25;100401.97;;;7.19;91.19
22662;BME280;11497;52.222;21.246;2024-03-22T03:50:55;100409.69;;;7.22;91.45
22662;BME280;11497;52.222;21.246;2024-03-22T03:53:25;100404.53;;;7.20;90.88
22662;BME280;11497;52.222;21.246;2024-03-22T03:55:53;100414.16;;;7.33;90.24
22662;BME280;11497;52.222;21.246;2024-03-22T03:58:19;100410.56;;;7.22;90.29
22662;BME280;11497;52.222;21.246;2024-03-22T04:00:47;100406.06;;;7.09;90.79
22662;BME280;11497;52.222;21.246;2024-03-22T04:03:14;100410.19;;;7.02;91.45
22662;BME280;11497;52.222;21.246;2024-03-22T04:05:41;100420.41;;;7.01;91.22
22662;BME280;11497;52.222;21.246;2024-03-22T04:08:08;100420.47;;;7.04;91.49
22662;BME280;11497;52.222;21.246;2024-03-22T04:10:35;100422.09;;;6.99;91.41
22662;BME280;11497;52.222;21.246;2024-03-22T04:13:02;100424.63;;;6.99;91.56
22662;BME280;11497;52.222;21.246;2024-03-22T04:15:33;100431.28;;;6.89;91.73
22662;BME280;11497;52.222;21.246;2024-03-22T04:18:00;100434.00;;;6.97;91.87
22662;BME280;11497;52.222;21.246;2024-03-22T04:20:27;100438.88;;;6.84;91.47
22662;BME280;11497;52.222;21.246;2024-03-22T04:22:54;100441.31;;;6.78;91.86
22662;BME280;11497;52.222;21.246;2024-03-22T04:25:21;100448.44;;;6.93;90.49
22662;BME280;11497;52.222;21.246;2024-03-22T04:27:48;100441.19;;;6.72;90.97
22662;BME280;11497;52.222;21.246;2024-03-22T04:30:15;100444.38;;;6.62;90.95
22662;BME280;11497;52.222;21.246;2024-03-22T04:32:42;100447.78;;;6.61;91.63
22662;BME280;11497;52.222;21.246;2024-03-22T04:35:09;100446.91;;;6.60;91.43
22662;BME280;11497;52.222;21.246;2024-03-22T04:37:36;100457.25;;;6.65;91.80
22662;BME280;11497;52.222;21.246;2024-03-22T04:40:03;100452.91;;;6.61;91.39
22662;BME280;11497;52.222;21.246;2024-03-22T04:42:30;100455.31;;;6.54;91.65
22662;BME280;11497;52.222;21.246;2024-03-22T04:44:57;100458.78;;;6.56;92.03
22662;BME280;11497;52.222;21.246;2024-03-22T04:47:24;100452.75;;;6.54;92.09
22662;BME280;11497;52.222;21.246;2024-03-22T04:49:51;100450.22;;;6.54;91.84
22662;BME280;11497;52.222;21.246;2024-03-22T04:52:18;100449.56;;;6.65;91.45
22662;BME280;11497;52.222;21.246;2024-03-22T04:54:45;100458.84;;;6.60;91.23
22662;BME280;11497;52.222;21.246;2024-03-22T04:57:14;100455.34;;;6.56;91.76
22662;BME280;11497;52.222;21.246;2024-03-22T04:59:41;100457.28;;;6.66;90.46
22662;BME280;11497;52.222;21.246;2024-03-22T05:02:08;100460.50;;;6.57;91.10
22662;BME280;11497;52.222;21.246;2024-03-22T05:04:35;100455.34;;;6.56;91.34
22662;BME280;11497;52.222;21.246;2024-03-22T05:07:02;100459.84;;;6.66;91.37
22662;BME280;11497;52.222;21.246;2024-03-22T05:09:30;100462.25;;;6.59;91.07
22662;BME280;11497;52.222;21.246;2024-03-22T05:11:58;100462.25;;;6.60;91.61
22662;BME280;11497;52.222;21.246;2024-03-22T05:14:25;100464.91;;;6.65;91.85
22662;BME280;11497;52.222;21.246;2024-03-22T05:16:52;100465.03;;;6.69;91.57
22662;BME280;11497;52.222;21.246;2024-03-22T05:19:19;100465.88;;;6.70;91.32
22662;BME280;11497;52.222;21.246;2024-03-22T05:21:46;100466.81;;;6.75;90.88
22662;BME280;11497;52.222;21.246;2024-03-22T05:24:13;100465.94;;;6.73;91.12
22662;BME280;11497;52.222;21.246;2024-03-22T05:26:40;100463.47;;;6.78;91.17
22662;BME280;11497;52.222;21.246;2024-03-22T05:29:07;100461.00;;;6.82;90.88
22662;BME280;11497;52.222;21.246;2024-03-22T05:31:46;100462.00;;;6.90;91.07
22662;BME280;11497;52.222;21.246;2024-03-22T05:34:15;100466.28;;;6.90;90.62
22662;BME280;11497;52.222;21.246;2024-03-22T05:36:42;100462.88;;;6.89;90.17
22662;BME280;11497;52.222;21.246;2024-03-22T05:39:09;100464.56;;;6.90;89.57
22662;BME280;11497;52.222;21.246;2024-03-22T05:41:39;100460.25;;;6.86;89.86
22662;BME280;11497;52.222;21.246;2024-03-22T05:44:07;100464.66;;;6.93;90.12
22662;BME280;11497;52.222;21.246;2024-03-22T05:46:34;100454.34;;;6.90;90.35
22662;BME280;11497;52.222;21.246;2024-03-22T05:49:01;100455.31;;;6.97;90.09
22662;BME280;11497;52.222;21.246;2024-03-22T05:51:29;100459.88;;;7.12;90.13
22662;BME280;11497;52.222;21.246;2024-03-22T05:53:57;100460.97;;;7.26;89.94
22662;BME280;11497;52.222;21.246;2024-03-22T05:56:24;100455.25;;;7.40;89.36
22662;BME280;11497;52.222;21.246;2024-03-22T05:58:51;100460.47;;;7.46;88.67
22662;BME280;11497;52.222;21.246;2024-03-22T06:01:19;100467.25;;;7.44;88.85
22662;BME280;11497;52.222;21.246;2024-03-22T06:03:46;100466.47;;;7.46;88.73
22662;BME280;11497;52.222;21.246;2024-03-22T06:06:12;100457.91;;;7.46;88.65
22662;BME280;11497;52.222;21.246;2024-03-22T06:08:40;100460.47;;;7.46;88.74
22662;BME280;11497;52.222;21.246;2024-03-22T06:11:08;100456.09;;;7.40;88.53
22662;BME280;11497;52.222;21.246;2024-03-22T06:13:35;100452.78;;;7.46;88.35
22662;BME280;11497;52.222;21.246;2024-03-22T06:16:03;100446.81;;;7.47;88.16
22662;BME280;11497;52.222;21.246;2024-03-22T06:18:30;100448.63;;;7.53;87.76
22662;BME280;11497;52.222;21.246;2024-03-22T06:20:58;100442.78;;;7.61;87.75
22662;BME280;11497;52.222;21.246;2024-03-22T06:23:25;100442.31;;;7.84;87.31
22662;BME280;11497;52.222;21.246;2024-03-22T06:25:52;100449.38;;;8.00;86.90
22662;BME280;11497;52.222;21.246;2024-03-22T06:28:20;100451.25;;;8.11;86.47
22662;BME280;11497;52.222;21.246;2024-03-22T06:30:47;100453.09;;;8.21;85.96
22662;BME280;11497;52.222;21.246;2024-03-22T06:33:14;100448.88;;;8.26;85.49
22662;BME280;11497;52.222;21.246;2024-03-22T06:35:44;100451.56;;;8.35;85.40
22662;BME280;11497;52.222;21.246;2024-03-22T06:38:11;100462.00;;;8.44;84.62
22662;BME280;11497;52.222;21.246;2024-03-22T06:40:38;100460.19;;;8.40;84.24
22662;BME280;11497;52.222;21.246;2024-03-22T06:43:05;100455.09;;;8.42;84.07
22662;BME280;11497;52.222;21.246;2024-03-22T06:45:32;100463.72;;;8.45;83.68
22662;BME280;11497;52.222;21.246;2024-03-22T06:47:59;100466.38;;;8.53;83.25
22662;BME280;11497;52.222;21.246;2024-03-22T06:50:25;100467.38;;;8.64;82.86
22662;BME280;11497;52.222;21.246;2024-03-22T06:52:55;100467.16;;;8.46;82.56
22662;BME280;11497;52.222;21.246;2024-03-22T06:55:22;100462.72;;;8.37;82.46
22662;BME280;11497;52.222;21.246;2024-03-22T06:57:50;100459.25;;;8.35;82.41
22662;BME280;11497;52.222;21.246;2024-03-22T07:00:18;100456.63;;;8.29;82.60
22662;BME280;11497;52.222;21.246;2024-03-22T07:02:45;100463.47;;;8.30;82.61
22662;BME280;11497;52.222;21.246;2024-03-22T07:05:12;100461.88;;;8.38;82.66
22662;BME280;11497;52.222;21.246;2024-03-22T07:07:39;100467.84;;;8.39;82.24
22662;BME280;11497;52.222;21.246;2024-03-22T07:10:06;100468.59;;;8.30;82.20
22662;BME280;11497;52.222;21.246;2024-03-22T07:12:33;100460.16;;;8.37;82.44
22662;BME280;11497;52.222;21.246;2024-03-22T07:15:01;100456.94;;;8.51;81.94
22662;BME280;11497;52.222;21.246;2024-03-22T07:17:29;100455.41;;;8.65;81.77
22662;BME280;11497;52.222;21.246;2024-03-22T07:19:56;100454.88;;;8.94;81.36
22662;BME280;11497;52.222;21.246;2024-03-22T07:22:24;100456.00;;;9.17;80.54
22662;BME280;11497;52.222;21.246;2024-03-22T07:24:51;100453.69;;;9.47;80.14
22662;BME280;11497;52.222;21.246;2024-03-22T07:27:18;100448.78;;;9.74;78.75
22662;BME280;11497;52.222;21.246;2024-03-22T07:29:45;100443.69;;;9.79;77.51
22662;BME280;11497;52.222;21.246;2024-03-22T07:32:12;100439.47;;;9.89;77.77
22662;BME280;11497;52.222;21.246;2024-03-22T07:34:39;100436.88;;;9.86;76.44
22662;BME280;11497;52.222;21.246;2024-03-22T07:37:06;100446.28;;;9.82;76.87
22662;BME280;11497;52.222;21.246;2024-03-22T07:39:33;100440.25;;;9.77;76.72
22662;BME280;11497;52.222;21.246;2024-03-22T07:42:00;100441.88;;;9.66;76.39
22662;BME280;11497;52.222;21.246;2024-03-22T07:44:29;100446.97;;;9.60;76.03
22662;BME280;11497;52.222;21.246;2024-03-22T07:46:56;100448.56;;;9.47;75.47
22662;BME280;11497;52.222;21.246;2024-03-22T07:49:23;100450.19;;;9.34;76.20
22662;BME280;11497;52.222;21.246;2024-03-22T07:51:50;100449.25;;;9.29;76.33
22662;BME280;11497;52.222;21.246;2024-03-22T07:54:17;100446.72;;;9.32;76.60
22662;BME280;11497;52.222;21.246;2024-03-22T07:56:45;100450.19;;;9.35;77.20
22662;BME280;11497;52.222;21.246;2024-03-22T07:59:11;100451.00;;;9.33;77.03
22662;BME280;11497;52.222;21.246;2024-03-22T08:01:38;100445.88;;;9.33;77.37
22662;BME280;11497;52.222;21.246;2024-03-22T08:04:05;100444.16;;;9.33;77.46
22662;BME280;11497;52.222;21.246;2024-03-22T08:06:33;100445.84;;;9.31;76.83
22662;BME280;11497;52.222;21.246;2024-03-22T08:09:00;100444.16;;;9.32;77.74
22662;BME280;11497;52.222;21.246;2024-03-22T08:11:27;100445.06;;;9.38;77.47
22662;BME280;11497;52.222;21.246;2024-03-22T08:13:54;100433.19;;;9.51;76.84
22662;BME280;11497;52.222;21.246;2024-03-22T08:16:29;100437.59;;;9.69;76.91
22662;BME280;11497;52.222;21.246;2024-03-22T08:18:56;100434.34;;;9.93;76.87
22662;BME280;11497;52.222;21.246;2024-03-22T08:21:24;100428.44;;;10.02;75.49
22662;BME280;11497;52.222;21.246;2024-03-22T08:23:52;100425.03;;;10.09;75.21
22662;BME280;11497;52.222;21.246;2024-03-22T08:26:19;100420.00;;;10.31;75.23
22662;BME280;11497;52.222;21.246;2024-03-22T08:28:47;100428.69;;;10.51;74.46
22662;BME280;11497;52.222;21.246;2024-03-22T08:31:14;100421.03;;;10.59;74.11
22662;BME280;11497;52.222;21.246;2024-03-22T08:33:41;100433.06;;;10.66;73.06
22662;BME280;11497;52.222;21.246;2024-03-22T08:36:08;100429.63;;;10.72;72.21
22662;BME280;11497;52.222;21.246;2024-03-22T08:38:35;100431.34;;;10.65;72.72
22662;BME280;11497;52.222;21.246;2024-03-22T08:41:02;100429.63;;;10.64;71.97
22662;BME280;11497;52.222;21.246;2024-03-22T08:43:30;100426.16;;;10.56;72.02
22662;BME280;11497;52.222;21.246;2024-03-22T08:45:57;100431.25;;;10.50;71.79
22662;BME280;11497;52.222;21.246;2024-03-22T08:48:24;100436.38;;;10.39;72.47
22662;BME280;11497;52.222;21.246;2024-03-22T08:50:51;100430.25;;;10.22;72.38
22662;BME280;11497;52.222;21.246;2024-03-22T08:53:18;100428.41;;;9.99;72.49
22662;BME280;11497;52.222;21.246;2024-03-22T08:55:46;100431.63;;;9.69;73.41
22662;BME280;11497;52.222;21.246;2024-03-22T08:58:15;100425.44;;;9.48;73.75
22662;BME280;11497;52.222;21.246;2024-03-22T09:00:43;100426.22;;;9.39;74.82
22662;BME280;11497;52.222;21.246;2024-03-22T09:03:10;100434.78;;;9.38;74.84
22662;BME280;11497;52.222;21.246;2024-03-22T09:05:38;100438.25;;;9.44;75.60
22662;BME280;11497;52.222;21.246;2024-03-22T09:08:05;100433.97;;;9.43;75.56
22662;BME280;11497;52.222;21.246;2024-03-22T09:10:32;100431.47;;;9.50;75.36
22662;BME280;11497;52.222;21.246;2024-03-22T09:12:59;100425.41;;;9.44;75.29
22662;BME280;11497;52.222;21.246;2024-03-22T09:15:26;100427.22;;;9.52;75.63
22662;BME280;11497;52.222;21.246;2024-03-22T09:17:53;100428.03;;;9.50;75.26
22662;BME280;11497;52.222;21.246;2024-03-22T09:20:20;100432.34;;;9.52;75.56
22662;BME280;11497;52.222;21.246;2024-03-22T09:22:47;100424.63;;;9.49;75.20
22662;BME280;11497;52.222;21.246;2024-03-22T09:25:14;100419.56;;;9.60;74.73
22662;BME280;11497;52.222;21.246;2024-03-22T09:27:41;100429.09;;;9.75;74.83
22662;BME280;11497;52.222;21.246;2024-03-22T09:30:09;100421.50;;;9.92;74.58
22662;BME280;11497;52.222;21.246;2024-03-22T09:32:36;100414.75;;;10.09;73.47
22662;BME280;11497;52.222;21.246;2024-03-22T09:35:03;100411.34;;;10.15;73.63
22662;BME280;11497;52.222;21.246;2024-03-22T09:37:37;100420.13;;;10.49;73.14
22662;BME280;11497;52.222;21.246;2024-03-22T09:40:04;100406.50;;;10.81;71.93
22662;BME280;11497;52.222;21.246;2024-03-22T09:42:37;100408.28;;;11.13;70.59
22662;BME280;11497;52.222;21.246;2024-03-22T09:45:11;100398.84;;;11.29;70.69
22662;BME280;11497;52.222;21.246;2024-03-22T09:47:38;100404.00;;;11.43;69.87
22662;BME280;11497;52.222;21.246;2024-03-22T09:50:09;100402.28;;;11.71;68.33
22662;BME280;11497;52.222;21.246;2024-03-22T09:52:38;100409.13;;;12.08;67.42
22662;BME280;11497;52.222;21.246;2024-03-22T09:55:06;100398.78;;;12.15;66.15
22662;BME280;11497;52.222;21.246;2024-03-22T09:57:37;100397.91;;;12.15;65.59
22662;BME280;11497;52.222;21.246;2024-03-22T10:00:08;100392.78;;;12.01;65.53
22662;BME280;11497;52.222;21.246;2024-03-22T10:02:40;100396.25;;;11.80;65.38
22662;BME280;11497;52.222;21.246;2024-03-22T10:05:09;100389.38;;;11.63;65.82
22662;BME280;11497;52.222;21.246;2024-03-22T10:07:36;100385.09;;;11.64;65.18
22662;BME280;11497;52.222;21.246;2024-03-22T10:10:03;100387.66;;;11.39;65.63
22662;BME280;11497;52.222;21.246;2024-03-22T10:12:30;100385.97;;;11.26;65.99
22662;BME280;11497;52.222;21.246;2024-03-22T10:14:57;100387.69;;;11.21;67.05
22662;BME280;11497;52.222;21.246;2024-03-22T10:17:27;100379.97;;;11.21;66.69
22662;BME280;11497;52.222;21.246;2024-03-22T10:19:55;100372.22;;;11.18;66.88
22662;BME280;11497;52.222;21.246;2024-03-22T10:22:22;100368.78;;;11.20;67.33
22662;BME280;11497;52.222;21.246;2024-03-22T10:24:52;100367.91;;;11.27;66.73
22662;BME280;11497;52.222;21.246;2024-03-22T10:27:20;100358.47;;;11.28;66.68
22662;BME280;11497;52.222;21.246;2024-03-22T10:29:47;100358.47;;;11.17;67.34
22662;BME280;11497;52.222;21.246;2024-03-22T10:32:16;100355.03;;;11.17;66.74
22662;BME280;11497;52.222;21.246;2024-03-22T10:34:43;100352.44;;;11.03;67.01
22662;BME280;11497;52.222;21.246;2024-03-22T10:37:15;100349.88;;;10.92;66.68
22662;BME280;11497;52.222;21.246;2024-03-22T10:39:43;100353.28;;;10.82;66.93
22662;BME280;11497;52.222;21.246;2024-03-22T10:42:13;100354.97;;;10.74;66.97
22662;BME280;11497;52.222;21.246;2024-03-22T10:44:41;100358.38;;;10.59;67.48
22662;BME280;11497;52.222;21.246;2024-03-22T10:47:10;100358.31;;;10.39;68.58
22662;BME280;11497;52.222;21.246;2024-03-22T10:49:39;100361.66;;;10.24;69.49
22662;BME280;11497;52.222;21.246;2024-03-22T10:52:08;100354.81;;;10.27;69.54
22662;BME280;11497;52.222;21.246;2024-03-22T10:54:43;100356.50;;;10.25;70.29
22662;BME280;11497;52.222;21.246;2024-03-22T10:57:14;100358.16;;;10.08;70.21
22662;BME280;11497;52.222;21.246;2024-03-22T10:59:43;100360.63;;;9.89;71.11
22662;BME280;11497;52.222;21.246;2024-03-22T11:02:12;100355.44;;;9.79;72.80
22662;BME280;11497;52.222;21.246;2024-03-22T11:04:40;100351.97;;;9.75;73.13
22662;BME280;11497;52.222;21.246;2024-03-22T11:07:07;100348.63;;;9.90;73.74
22662;BME280;11497;52.222;21.246;2024-03-22T11:09:35;100342.75;;;10.11;73.46
22662;BME280;11497;52.222;21.246;2024-03-22T11:12:04;100341.94;;;10.29;73.13
22662;BME280;11497;52.222;21.246;2024-03-22T11:14:31;100342.06;;;10.50;72.34
22662;BME280;11497;52.222;21.246;2024-03-22T11:16:58;100337.78;;;10.53;72.59
22662;BME280;11497;52.222;21.246;2024-03-22T11:19:25;100333.44;;;10.41;72.50
22662;BME280;11497;52.222;21.246;2024-03-22T11:21:52;100325.75;;;10.42;72.20
22662;BME280;11497;52.222;21.246;2024-03-22T11:24:19;100331.72;;;10.34;72.19
22662;BME280;11497;52.222;21.246;2024-03-22T11:26:46;100330.72;;;10.10;72.53
22662;BME280;11497;52.222;21.246;2024-03-22T11:29:14;100327.25;;;9.95;73.17
22662;BME280;11497;52.222;21.246;2024-03-22T11:31:41;100333.22;;;9.93;73.82
22662;BME280;11497;52.222;21.246;2024-03-22T11:34:08;100330.63;;;9.90;74.61
22662;BME280;11497;52.222;21.246;2024-03-22T11:36:36;100331.44;;;9.83;74.23
22662;BME280;11497;52.222;21.246;2024-03-22T11:39:03;100321.19;;;9.86;74.25
22662;BME280;11497;52.222;21.246;2024-03-22T11:41:31;100316.13;;;10.09;74.46
22662;BME280;11497;52.222;21.246;2024-03-22T11:43:59;100313.72;;;10.35;73.49
22662;BME280;11497;52.222;21.246;2024-03-22T11:46:27;100309.47;;;10.62;72.59
22662;BME280;11497;52.222;21.246;2024-03-22T11:48:55;100309.53;;;10.99;72.02
22662;BME280;11497;52.222;21.246;2024-03-22T11:51:22;100310.34;;;11.47;70.64
22662;BME280;11497;52.222;21.246;2024-03-22T11:53:53;100298.28;;;11.69;69.15
22662;BME280;11497;52.222;21.246;2024-03-22T11:56:24;100299.94;;;11.90;68.62
22662;BME280;11497;52.222;21.246;2024-03-22T11:59:00;100297.41;;;11.76;67.62
22662;BME280;11497;52.222;21.246;2024-03-22T12:01:27;100294.00;;;11.53;67.28
22662;BME280;11497;52.222;21.246;2024-03-22T12:03:55;100294.06;;;11.28;67.83
22662;BME280;11497;52.222;21.246;2024-03-22T12:06:22;100299.19;;;11.02;68.70
22662;BME280;11497;52.222;21.246;2024-03-22T12:08:49;100292.34;;;10.92;67.88
22662;BME280;11497;52.222;21.246;2024-03-22T12:11:16;100291.50;;;10.85;67.90
22662;BME280;11497;52.222;21.246;2024-03-22T12:13:43;100295.78;;;10.89;68.47
22662;BME280;11497;52.222;21.246;2024-03-22T12:16:10;100291.50;;;11.11;68.01
22662;BME280;11497;52.222;21.246;2024-03-22T12:18:37;100290.63;;;11.21;67.94
22662;BME280;11497;52.222;21.246;2024-03-22T12:21:04;100289.75;;;11.25;67.64
22662;BME280;11497;52.222;21.246;2024-03-22T12:23:31;100289.75;;;11.33;67.18
22662;BME280;11497;52.222;21.246;2024-03-22T12:25:58;100289.75;;;11.33;66.94
22662;BME280;11497;52.222;21.246;2024-03-22T12:28:25;100287.19;;;11.18;67.21
22662;BME280;11497;52.222;21.246;2024-03-22T12:30:52;100281.16;;;11.17;67.39
22662;BME280;11497;52.222;21.246;2024-03-22T12:33:19;100267.47;;;11.11;66.57
22662;BME280;11497;52.222;21.246;2024-03-22T12:35:46;100276.91;;;11.02;66.91
22662;BME280;11497;52.222;21.246;2024-03-22T12:38:15;100259.72;;;11.11;67.15
22662;BME280;11497;52.222;21.246;2024-03-22T12:40:42;100260.56;;;11.28;67.15
22662;BME280;11497;52.222;21.246;2024-03-22T12:43:10;100257.09;;;11.38;66.24
22662;BME280;11497;52.222;21.246;2024-03-22T12:45:38;100248.50;;;11.45;65.67
22662;BME280;11497;52.222;21.246;2024-03-22T12:48:05;100245.03;;;11.47;65.59
22662;BME280;11497;52.222;21.246;2024-03-22T12:50:32;100240.78;;;11.35;65.61